createdAt,value
2023-05-06T00:00:11.112Z,237.83
2023-05-06T00:01:11.057Z,237.02
2023-05-06T00:02:11.134Z,238.18
2023-05-06T00:03:11.238Z,236.31
2023-05-06T00:04:11.398Z,235.01
2023-05-06T00:05:11.564Z,236.26
2023-05-06T00:06:11.289Z,236.50
2023-05-06T00:07:11.406Z,237.31
2023-05-06T00:08:11.402Z,238.05
2023-05-06T00:09:11.468Z,236.43
2023-05-06T00:10:11.545Z,234.71
2023-05-06T00:11:11.570Z,237.95
2023-05-06T00:12:11.642Z,235.88
2023-05-06T00:13:11.741Z,236.05
2023-05-06T00:14:11.715Z,236.42
2023-05-06T00:15:12.088Z,238.07
2023-05-06T00:16:11.951Z,238.18
2023-05-06T00:17:11.931Z,236.27
2023-05-06T00:18:11.955Z,237.89
2023-05-06T00:19:12.453Z,236.67
2023-05-06T00:20:12.236Z,237.49
2023-05-06T00:21:12.110Z,236.02
2023-05-06T00:22:12.159Z,236.73
2023-05-06T00:23:12.237Z,236.86
2023-05-06T00:24:12.282Z,237.11
2023-05-06T00:25:12.327Z,237.16
2023-05-06T00:26:12.348Z,236.10
2023-05-06T00:27:12.461Z,235.88
2023-05-06T00:28:12.548Z,236.37
2023-05-06T00:29:12.523Z,238.00
2023-05-06T00:30:12.606Z,237.25
2023-05-06T00:31:12.628Z,238.32
2023-05-06T00:32:12.693Z,238.19
2023-05-06T00:33:12.700Z,235.86
2023-05-06T00:34:12.809Z,235.77
2023-05-06T00:35:12.834Z,235.99
2023-05-06T00:36:12.960Z,238.07
2023-05-06T00:37:12.979Z,237.33
2023-05-06T00:38:13.016Z,236.98
2023-05-06T00:39:13.101Z,237.34
2023-05-06T00:40:13.103Z,238.48
2023-05-06T00:41:13.183Z,238.77
2023-05-06T00:42:13.233Z,237.65
2023-05-06T00:43:13.260Z,240.65
2023-05-06T00:44:13.312Z,238.42
2023-05-06T00:45:13.398Z,238.18
2023-05-06T00:46:13.503Z,240.09
2023-05-06T00:47:13.459Z,238.82
2023-05-06T00:48:13.666Z,239.18
2023-05-06T00:49:13.568Z,238.63
2023-05-06T00:50:13.647Z,239.56
2023-05-06T00:51:13.689Z,238.55
2023-05-06T00:52:13.858Z,239.63
2023-05-06T00:53:13.842Z,238.90
2023-05-06T00:54:13.883Z,238.42
2023-05-06T00:55:14.038Z,238.46
2023-05-06T00:56:14.043Z,238.48
2023-05-06T00:57:14.029Z,239.59
2023-05-06T00:58:14.068Z,237.79
2023-05-06T00:59:14.158Z,237.07
2023-05-06T01:00:14.232Z,240.45
2023-05-06T01:01:14.344Z,239.53
2023-05-06T01:02:14.358Z,239.32
2023-05-06T01:03:14.443Z,239.59
2023-05-06T01:04:14.428Z,239.51
2023-05-06T01:05:14.576Z,239.64
2023-05-06T01:06:14.569Z,240.46
2023-05-06T01:07:14.718Z,240.45
2023-05-06T01:08:14.784Z,239.95
2023-05-06T01:09:14.788Z,240.28
2023-05-06T01:10:14.810Z,240.37
2023-05-06T01:11:15.897Z,240.50
2023-05-06T01:12:14.964Z,239.40
2023-05-06T01:13:15.190Z,241.01
2023-05-06T01:14:15.063Z,240.63
2023-05-06T01:15:15.121Z,239.66
2023-05-06T01:16:15.202Z,240.50
2023-05-06T01:17:15.281Z,239.99
2023-05-06T01:18:15.289Z,240.90
2023-05-06T01:19:15.374Z,241.22
2023-05-06T01:20:15.461Z,240.75
2023-05-06T01:21:15.486Z,240.37
2023-05-06T01:22:15.542Z,238.45
2023-05-06T01:23:15.596Z,239.48
2023-05-06T01:24:15.716Z,240.36
2023-05-06T01:25:15.704Z,241.15
2023-05-06T01:26:15.776Z,241.30
2023-05-06T01:27:15.848Z,241.48
2023-05-06T01:28:15.902Z,240.26
2023-05-06T01:29:15.958Z,243.00
2023-05-06T01:30:16.005Z,240.82
2023-05-06T01:31:16.137Z,239.87
2023-05-06T01:32:16.131Z,238.89
2023-05-06T01:33:16.201Z,239.84
2023-05-06T01:34:16.247Z,240.16
2023-05-06T01:35:16.290Z,240.70
2023-05-06T01:36:16.367Z,239.93
2023-05-06T01:37:16.405Z,241.10
2023-05-06T01:38:16.469Z,240.29
2023-05-06T01:39:16.509Z,239.18
2023-05-06T01:40:16.720Z,241.46
2023-05-06T01:41:16.640Z,240.63
2023-05-06T01:42:16.676Z,242.01
2023-05-06T01:43:16.781Z,238.24
2023-05-06T01:44:16.788Z,239.84
2023-05-06T01:45:16.900Z,241.58
2023-05-06T01:46:16.924Z,241.55
2023-05-06T01:47:16.947Z,243.68
2023-05-06T01:48:17.039Z,241.64
2023-05-06T01:49:17.155Z,242.34
2023-05-06T01:50:17.175Z,240.51
2023-05-06T01:51:17.250Z,241.61
2023-05-06T01:52:17.207Z,240.96
2023-05-06T01:53:17.272Z,240.83
2023-05-06T01:54:17.329Z,240.26
2023-05-06T01:55:17.368Z,242.30
2023-05-06T01:56:17.415Z,241.22
2023-05-06T01:57:17.491Z,242.84
2023-05-06T01:58:17.547Z,242.65
2023-05-06T01:59:17.540Z,243.09
2023-05-06T02:00:17.592Z,242.94
2023-05-06T02:01:17.733Z,241.00
2023-05-06T02:02:17.796Z,243.22
2023-05-06T02:03:17.732Z,242.94
2023-05-06T02:04:17.698Z,243.32
2023-05-06T02:05:17.786Z,242.63
2023-05-06T02:06:17.793Z,242.15
2023-05-06T02:07:17.752Z,242.04
2023-05-06T02:08:17.809Z,243.63
2023-05-06T02:09:17.877Z,243.94
2023-05-06T02:10:17.924Z,242.13
2023-05-06T02:11:17.943Z,244.65
2023-05-06T02:12:18.049Z,242.40
2023-05-06T02:13:18.162Z,244.46
2023-05-06T02:14:18.219Z,244.24
2023-05-06T02:15:18.112Z,243.22
2023-05-06T02:16:18.154Z,243.30
2023-05-06T02:17:18.189Z,243.52
2023-05-06T02:18:18.285Z,243.71
2023-05-06T02:19:18.244Z,245.10
2023-05-06T02:20:18.296Z,243.78
2023-05-06T02:21:18.296Z,244.19
2023-05-06T02:22:18.359Z,243.84
2023-05-06T02:23:18.354Z,243.19
2023-05-06T02:24:18.372Z,242.56
2023-05-06T02:25:18.355Z,243.12
2023-05-06T02:26:18.361Z,244.48
2023-05-06T02:27:18.395Z,244.44
2023-05-06T02:28:18.467Z,243.71
2023-05-06T02:29:18.403Z,242.79
2023-05-06T02:30:18.420Z,243.96
2023-05-06T02:31:18.482Z,244.28
2023-05-06T02:32:18.415Z,244.49
2023-05-06T02:33:18.495Z,244.17
2023-05-06T02:34:18.430Z,243.95
2023-05-06T02:35:18.891Z,243.27
2023-05-06T02:36:18.479Z,245.80
2023-05-06T02:37:18.450Z,245.39
2023-05-06T02:38:18.457Z,244.35
2023-05-06T02:39:18.490Z,244.78
2023-05-06T02:40:18.516Z,246.18
2023-05-06T02:41:18.548Z,243.81
2023-05-06T02:42:18.558Z,243.66
2023-05-06T02:43:18.564Z,243.27
2023-05-06T02:44:18.620Z,243.41
2023-05-06T02:45:18.564Z,244.35
2023-05-06T02:46:18.687Z,242.79
2023-05-06T02:47:18.612Z,245.12
2023-05-06T02:48:18.589Z,243.95
2023-05-06T02:49:18.572Z,245.04
2023-05-06T02:50:18.613Z,245.32
2023-05-06T02:51:18.587Z,243.37
2023-05-06T02:52:18.619Z,244.53
2023-05-06T02:53:18.682Z,244.14
2023-05-06T02:54:18.624Z,245.71
2023-05-06T02:55:18.640Z,245.07
2023-05-06T02:56:18.613Z,243.83
2023-05-06T02:57:18.611Z,243.86
2023-05-06T02:58:18.582Z,244.04
2023-05-06T02:59:18.672Z,241.64
2023-05-06T03:00:18.809Z,244.90
2023-05-06T03:01:18.779Z,244.27
2023-05-06T03:02:18.749Z,244.51
2023-05-06T03:03:18.765Z,244.31
2023-05-06T03:04:18.905Z,244.22
2023-05-06T03:05:18.823Z,244.78
2023-05-06T03:06:18.813Z,243.00
2023-05-06T03:07:18.899Z,242.97
2023-05-06T03:08:18.872Z,242.36
2023-05-06T03:09:18.879Z,239.76
2023-05-06T03:10:18.869Z,239.91
2023-05-06T03:11:18.919Z,241.72
2023-05-06T03:12:18.902Z,239.93
2023-05-06T03:13:19.010Z,241.59
2023-05-06T03:14:18.943Z,242.23
2023-05-06T03:15:18.953Z,242.09
2023-05-06T03:16:19.059Z,241.26
2023-05-06T03:17:18.995Z,241.10
2023-05-06T03:18:18.956Z,241.01
2023-05-06T03:19:18.972Z,240.50
2023-05-06T03:20:18.946Z,241.53
2023-05-06T03:21:19.033Z,240.08
2023-05-06T03:22:18.928Z,242.02
2023-05-06T03:23:18.926Z,241.58
2023-05-06T03:24:18.956Z,239.54
2023-05-06T03:25:18.914Z,240.82
2023-05-06T03:26:18.961Z,239.87
2023-05-06T03:27:18.924Z,240.71
2023-05-06T03:28:18.895Z,240.28
2023-05-06T03:29:18.902Z,241.45
2023-05-06T03:30:18.944Z,242.08
2023-05-06T03:31:18.889Z,241.18
2023-05-06T03:32:19.042Z,241.20
2023-05-06T03:33:18.894Z,240.70
2023-05-06T03:34:18.862Z,241.75
2023-05-06T03:35:18.915Z,243.30
2023-05-06T03:36:18.946Z,241.56
2023-05-06T03:37:18.949Z,241.55
2023-05-06T03:38:18.891Z,240.87
2023-05-06T03:39:18.915Z,240.09
2023-05-06T03:40:18.878Z,241.94
2023-05-06T03:41:18.915Z,240.30
2023-05-06T03:42:18.906Z,242.05
2023-05-06T03:43:18.911Z,242.84
2023-05-06T03:44:18.871Z,241.72
2023-05-06T03:45:18.869Z,243.07
2023-05-06T03:46:18.867Z,240.22
2023-05-06T03:47:18.891Z,243.11
2023-05-06T03:48:18.940Z,240.04
2023-05-06T03:49:18.909Z,244.19
2023-05-06T03:50:18.845Z,241.63
2023-05-06T03:51:18.879Z,241.97
2023-05-06T03:52:18.859Z,241.19
2023-05-06T03:53:18.871Z,242.21
2023-05-06T03:54:18.876Z,242.38
2023-05-06T03:55:18.910Z,241.34
2023-05-06T03:56:18.885Z,242.96
2023-05-06T03:57:18.859Z,240.76
2023-05-06T03:58:18.877Z,242.34
2023-05-06T03:59:18.866Z,240.61
2023-05-06T04:00:18.886Z,240.05
2023-05-06T04:01:18.885Z,241.75
2023-05-06T04:02:18.912Z,242.50
2023-05-06T04:03:18.944Z,242.87
2023-05-06T04:04:18.869Z,241.62
2023-05-06T04:05:18.911Z,241.94
2023-05-06T04:06:18.862Z,242.66
2023-05-06T04:07:18.887Z,244.57
2023-05-06T04:08:18.880Z,244.00
2023-05-06T04:09:18.837Z,243.19
2023-05-06T04:10:18.888Z,243.73
2023-05-06T04:11:18.846Z,244.70
2023-05-06T04:12:18.853Z,243.12
2023-05-06T04:13:18.907Z,243.35
2023-05-06T04:14:18.876Z,243.10
2023-05-06T04:15:18.887Z,244.51
2023-05-06T04:16:18.892Z,244.99
2023-05-06T04:17:18.891Z,245.13
2023-05-06T04:18:18.933Z,244.55
2023-05-06T04:19:18.906Z,242.62
2023-05-06T04:20:18.899Z,245.84
2023-05-06T04:21:18.872Z,244.76
2023-05-06T04:22:18.859Z,244.91
2023-05-06T04:23:18.862Z,243.26
2023-05-06T04:24:18.855Z,246.32
2023-05-06T04:25:18.838Z,244.57
2023-05-06T04:26:18.883Z,244.51
2023-05-06T04:27:18.858Z,245.67
2023-05-06T04:28:18.865Z,246.67
2023-05-06T04:29:18.881Z,246.36
2023-05-06T04:30:18.871Z,244.03
2023-05-06T04:31:18.907Z,245.49
2023-05-06T04:32:18.889Z,246.17
2023-05-06T04:33:18.904Z,244.71
2023-05-06T04:34:18.910Z,246.78
2023-05-06T04:35:18.914Z,244.47
2023-05-06T04:36:18.965Z,245.33
2023-05-06T04:37:18.890Z,248.01
2023-05-06T04:38:18.933Z,247.27
2023-05-06T04:39:18.942Z,245.35
2023-05-06T04:40:18.897Z,245.85
2023-05-06T04:41:18.917Z,246.29
2023-05-06T04:42:18.900Z,246.81
2023-05-06T04:43:18.912Z,246.05
2023-05-06T04:44:18.918Z,245.20
2023-05-06T04:45:18.920Z,244.82
2023-05-06T04:46:18.992Z,244.04
2023-05-06T04:47:18.931Z,246.47
2023-05-06T04:48:18.939Z,243.14
2023-05-06T04:49:18.948Z,244.31
2023-05-06T04:50:18.910Z,245.15
2023-05-06T04:51:18.921Z,243.31
2023-05-06T04:52:18.973Z,246.37
2023-05-06T04:53:18.941Z,244.05
2023-05-06T04:54:18.955Z,243.56
2023-05-06T04:55:18.949Z,243.08
2023-05-06T04:56:18.962Z,243.12
2023-05-06T04:57:18.964Z,244.21
2023-05-06T04:58:18.977Z,243.15
2023-05-06T04:59:18.936Z,242.28
2023-05-06T05:00:18.979Z,241.81
2023-05-06T05:01:19.059Z,244.13
2023-05-06T05:02:18.946Z,244.59
2023-05-06T05:03:19.098Z,243.12
2023-05-06T05:04:18.958Z,242.27
2023-05-06T05:05:18.968Z,242.16
2023-05-06T05:06:18.992Z,241.79
2023-05-06T05:07:18.967Z,240.59
2023-05-06T05:08:19.027Z,242.32
2023-05-06T05:09:18.942Z,242.29
2023-05-06T05:10:18.994Z,240.04
2023-05-06T05:11:18.962Z,241.56
2023-05-06T05:12:19.014Z,240.11
2023-05-06T05:13:19.062Z,241.34
2023-05-06T05:14:18.975Z,242.14
2023-05-06T05:15:18.981Z,242.01
2023-05-06T05:16:19.045Z,242.75
2023-05-06T05:17:18.996Z,243.12
2023-05-06T05:18:19.005Z,239.93
2023-05-06T05:19:19.010Z,241.12
2023-05-06T05:20:18.991Z,240.31
2023-05-06T05:21:18.951Z,240.86
2023-05-06T05:22:18.975Z,243.40
2023-05-06T05:23:18.979Z,240.90
2023-05-06T05:24:19.039Z,242.40
2023-05-06T05:25:18.990Z,240.22
2023-05-06T05:26:18.969Z,238.96
2023-05-06T05:27:18.974Z,241.23
2023-05-06T05:28:18.968Z,244.61
2023-05-06T05:29:18.980Z,239.96
2023-05-06T05:30:18.983Z,240.69
2023-05-06T05:31:19.067Z,241.27
2023-05-06T05:32:18.981Z,241.47
2023-05-06T05:33:19.095Z,242.08
2023-05-06T05:34:18.957Z,241.80
2023-05-06T05:35:18.965Z,243.36
2023-05-06T05:36:18.971Z,242.87
2023-05-06T05:37:18.922Z,244.48
2023-05-06T05:38:18.939Z,243.00
2023-05-06T05:39:18.938Z,242.80
2023-05-06T05:40:19.058Z,243.69
2023-05-06T05:41:18.919Z,243.60
2023-05-06T05:42:18.942Z,243.79
2023-05-06T05:43:18.966Z,245.11
2023-05-06T05:44:18.938Z,240.72
2023-05-06T05:45:18.910Z,244.83
2023-05-06T05:46:19.038Z,243.02
2023-05-06T05:47:18.960Z,243.83
2023-05-06T05:48:18.951Z,245.84
2023-05-06T05:49:18.972Z,244.83
2023-05-06T05:50:18.943Z,243.55
2023-05-06T05:51:18.919Z,243.90
2023-05-06T05:52:18.976Z,244.62
2023-05-06T05:53:18.900Z,243.43
2023-05-06T05:54:18.880Z,242.06
2023-05-06T05:55:18.950Z,242.44
2023-05-06T05:56:18.965Z,241.76
2023-05-06T05:57:18.962Z,243.27
2023-05-06T05:58:18.908Z,243.64
2023-05-06T05:59:18.871Z,242.40
2023-05-06T06:00:18.909Z,241.61
2023-05-06T06:01:18.883Z,242.11
2023-05-06T06:02:18.908Z,242.58
2023-05-06T06:03:18.964Z,242.01
2023-05-06T06:04:18.965Z,241.58
2023-05-06T06:05:18.855Z,242.91
2023-05-06T06:06:18.869Z,243.32
2023-05-06T06:07:18.856Z,242.93
2023-05-06T06:08:18.881Z,242.16
2023-05-06T06:09:18.838Z,243.01
2023-05-06T06:10:18.844Z,243.63
2023-05-06T06:11:18.858Z,244.10
2023-05-06T06:12:18.864Z,241.29
2023-05-06T06:13:18.933Z,243.25
2023-05-06T06:14:18.885Z,243.33
2023-05-06T06:15:18.893Z,240.89
2023-05-06T06:16:18.976Z,242.90
2023-05-06T06:17:18.885Z,242.98
2023-05-06T06:18:18.957Z,241.59
2023-05-06T06:19:18.933Z,243.13
2023-05-06T06:20:18.976Z,243.24
2023-05-06T06:21:18.966Z,242.86
2023-05-06T06:22:18.955Z,242.26
2023-05-06T06:23:18.931Z,241.97
2023-05-06T06:24:18.957Z,237.36
2023-05-06T06:25:18.959Z,237.82
2023-05-06T06:26:18.950Z,239.46
2023-05-06T06:27:18.921Z,237.28
2023-05-06T06:28:19.025Z,236.79
2023-05-06T06:29:18.941Z,240.41
2023-05-06T06:30:18.903Z,237.97
2023-05-06T06:31:18.931Z,238.15
2023-05-06T06:32:18.919Z,236.85
2023-05-06T06:33:18.895Z,238.35
2023-05-06T06:34:18.913Z,235.02
2023-05-06T06:35:18.913Z,236.53
2023-05-06T06:36:18.884Z,234.09
2023-05-06T06:37:19.459Z,234.98
2023-05-06T06:38:18.859Z,232.09
2023-05-06T06:39:19.476Z,232.74
2023-05-06T06:40:18.897Z,230.45
2023-05-06T06:41:18.873Z,231.21
2023-05-06T06:42:18.897Z,230.82
2023-05-06T06:43:18.878Z,229.85
2023-05-06T06:44:18.952Z,229.35
2023-05-06T06:45:18.871Z,227.49
2023-05-06T06:46:19.049Z,226.33
2023-05-06T06:47:18.906Z,225.11
2023-05-06T06:48:18.821Z,228.11
2023-05-06T06:49:19.011Z,228.41
2023-05-06T06:50:18.928Z,227.71
2023-05-06T06:51:18.901Z,227.52
2023-05-06T06:52:18.933Z,226.12
2023-05-06T06:53:18.949Z,224.58
2023-05-06T06:54:19.480Z,225.24
2023-05-06T06:55:18.904Z,223.34
2023-05-06T06:56:19.013Z,224.82
2023-05-06T06:57:18.959Z,223.61
2023-05-06T06:58:18.972Z,223.80
2023-05-06T06:59:18.976Z,222.21
2023-05-06T07:00:19.180Z,220.85
2023-05-06T07:01:19.116Z,223.04
2023-05-06T07:02:19.105Z,223.09
2023-05-06T07:03:19.118Z,224.20
2023-05-06T07:04:19.168Z,223.68
2023-05-06T07:05:19.134Z,225.44
2023-05-06T07:06:19.201Z,222.93
2023-05-06T07:07:19.250Z,221.60
2023-05-06T07:08:19.281Z,220.99
2023-05-06T07:09:19.465Z,221.26
2023-05-06T07:10:19.444Z,219.61
2023-05-06T07:11:19.420Z,217.81
2023-05-06T07:12:19.478Z,221.55
2023-05-06T07:13:19.639Z,224.39
2023-05-06T07:14:19.607Z,224.83
2023-05-06T07:15:19.674Z,224.73
2023-05-06T07:16:19.742Z,223.64
2023-05-06T07:17:19.937Z,224.17
2023-05-06T07:18:19.874Z,225.07
2023-05-06T07:19:19.891Z,225.62
2023-05-06T07:20:19.970Z,225.74
2023-05-06T07:21:19.975Z,226.61
2023-05-06T07:22:20.079Z,226.34
2023-05-06T07:23:20.128Z,225.47
2023-05-06T07:24:20.308Z,224.89
2023-05-06T07:25:20.239Z,223.43
2023-05-06T07:26:20.297Z,223.14
2023-05-06T07:27:20.372Z,226.29
2023-05-06T07:28:20.418Z,225.66
2023-05-06T07:29:20.465Z,222.99
2023-05-06T07:30:22.427Z,223.27
2023-05-06T07:31:20.587Z,225.12
2023-05-06T07:32:20.592Z,225.10
2023-05-06T07:33:20.534Z,223.29
2023-05-06T07:34:20.548Z,223.76
2023-05-06T07:35:20.533Z,224.12
2023-05-06T07:36:20.515Z,224.27
2023-05-06T07:37:20.591Z,225.24
2023-05-06T07:38:20.686Z,227.39
2023-05-06T07:39:20.500Z,225.88
2023-05-06T07:40:20.590Z,225.98
2023-05-06T07:41:20.471Z,224.68
2023-05-06T07:42:20.503Z,227.07
2023-05-06T07:43:20.467Z,226.25
2023-05-06T07:44:20.444Z,223.26
2023-05-06T07:45:20.478Z,225.04
2023-05-06T07:46:20.518Z,223.91
2023-05-06T07:47:20.526Z,223.31
2023-05-06T07:48:20.614Z,222.75
2023-05-06T07:49:20.411Z,222.38
2023-05-06T07:50:20.454Z,220.03
2023-05-06T07:51:20.395Z,220.89
2023-05-06T07:52:20.396Z,222.85
2023-05-06T07:53:20.454Z,225.30
2023-05-06T07:54:20.396Z,227.04
2023-05-06T07:55:20.402Z,223.03
2023-05-06T07:56:20.387Z,219.86
2023-05-06T07:57:20.383Z,220.60
2023-05-06T07:58:20.386Z,221.03
2023-05-06T07:59:20.348Z,220.36
2023-05-06T08:00:20.337Z,222.16
2023-05-06T08:01:20.352Z,222.77
2023-05-06T08:02:20.486Z,223.31
2023-05-06T08:03:20.515Z,225.47
2023-05-06T08:04:20.407Z,222.98
2023-05-06T08:05:20.327Z,223.05
2023-05-06T08:06:20.345Z,223.97
2023-05-06T08:07:20.481Z,227.76
2023-05-06T08:08:20.286Z,225.89
2023-05-06T08:09:23.045Z,223.20
2023-05-06T08:10:20.295Z,222.97
2023-05-06T08:11:20.298Z,219.31
2023-05-06T08:12:20.289Z,223.02
2023-05-06T08:13:20.367Z,225.80
2023-05-06T08:14:20.228Z,224.87
2023-05-06T08:15:20.234Z,223.13
2023-05-06T08:16:20.931Z,223.04
2023-05-06T08:17:20.240Z,228.22
2023-05-06T08:18:22.823Z,225.01
2023-05-06T08:19:20.166Z,226.10
2023-05-06T08:20:20.338Z,224.63
2023-05-06T08:21:20.256Z,222.48
2023-05-06T08:22:20.197Z,225.30
2023-05-06T08:23:20.195Z,226.13
2023-05-06T08:24:20.207Z,225.29
2023-05-06T08:25:20.208Z,222.45
2023-05-06T08:26:20.169Z,222.27
2023-05-06T08:27:20.178Z,225.05
2023-05-06T08:28:20.189Z,224.10
2023-05-06T08:29:20.124Z,221.96
2023-05-06T08:30:20.113Z,221.13
2023-05-06T08:31:20.200Z,222.67
2023-05-06T08:32:20.149Z,221.01
2023-05-06T08:33:20.105Z,223.38
2023-05-06T08:34:20.064Z,223.37
2023-05-06T08:35:20.134Z,221.25
2023-05-06T08:36:20.167Z,221.47
2023-05-06T08:37:20.073Z,221.82
2023-05-06T08:38:20.172Z,223.01
2023-05-06T08:39:20.053Z,224.10
2023-05-06T08:40:20.079Z,222.20
2023-05-06T08:41:20.022Z,220.16
2023-05-06T08:42:20.073Z,219.61
2023-05-06T08:43:20.004Z,218.13
2023-05-06T08:44:20.025Z,219.77
2023-05-06T08:45:20.057Z,220.05
2023-05-06T08:46:20.093Z,220.43
2023-05-06T08:47:20.000Z,218.48
2023-05-06T08:48:20.011Z,220.09
2023-05-06T08:49:20.025Z,219.66
2023-05-06T08:50:19.987Z,219.81
2023-05-06T08:51:19.963Z,218.77
2023-05-06T08:52:20.031Z,219.18
2023-05-06T08:53:20.009Z,217.37
2023-05-06T08:54:19.996Z,220.39
2023-05-06T08:55:19.952Z,221.78
2023-05-06T08:56:19.981Z,221.45
2023-05-06T08:57:19.972Z,221.84
2023-05-06T08:58:20.054Z,219.08
2023-05-06T08:59:19.917Z,221.29
2023-05-06T09:00:20.026Z,219.72
2023-05-06T09:01:19.980Z,220.21
2023-05-06T09:02:19.955Z,220.10
2023-05-06T09:03:19.954Z,222.05
2023-05-06T09:04:19.872Z,223.85
2023-05-06T09:05:19.927Z,222.84
2023-05-06T09:06:19.902Z,225.57
2023-05-06T09:07:19.876Z,225.90
2023-05-06T09:08:19.883Z,227.70
2023-05-06T09:09:19.842Z,227.57
2023-05-06T09:10:19.948Z,228.92
2023-05-06T09:11:19.869Z,230.43
2023-05-06T09:12:19.866Z,230.66
2023-05-06T09:13:20.012Z,229.08
2023-05-06T09:14:19.836Z,232.61
2023-05-06T09:15:19.835Z,229.52
2023-05-06T09:16:19.888Z,230.25
2023-05-06T09:17:19.826Z,228.13
2023-05-06T09:18:19.809Z,231.42
2023-05-06T09:19:19.816Z,232.68
2023-05-06T09:20:19.846Z,231.03
2023-05-06T09:21:19.790Z,230.97
2023-05-06T09:22:19.881Z,231.63
2023-05-06T09:23:19.788Z,229.07
2023-05-06T09:24:19.852Z,229.34
2023-05-06T09:25:19.747Z,228.11
2023-05-06T09:26:19.765Z,230.45
2023-05-06T09:27:19.823Z,230.67
2023-05-06T09:28:19.826Z,228.32
2023-05-06T09:29:19.820Z,228.73
2023-05-06T09:30:19.834Z,227.60
2023-05-06T09:31:19.906Z,228.60
2023-05-06T09:32:19.907Z,227.10
2023-05-06T09:33:19.887Z,224.63
2023-05-06T09:34:19.937Z,223.89
2023-05-06T09:35:19.919Z,224.36
2023-05-06T09:36:19.964Z,223.55
2023-05-06T09:37:19.985Z,228.05
2023-05-06T09:38:19.982Z,226.57
2023-05-06T09:39:20.082Z,225.24
2023-05-06T09:40:20.094Z,223.90
2023-05-06T09:41:20.041Z,222.96
2023-05-06T09:42:20.116Z,221.49
2023-05-06T09:43:20.104Z,222.91
2023-05-06T09:44:20.133Z,222.83
2023-05-06T09:45:20.104Z,223.11
2023-05-06T09:46:20.119Z,223.36
2023-05-06T09:47:20.279Z,225.07
2023-05-06T09:48:20.160Z,223.92
2023-05-06T09:49:20.162Z,226.36
2023-05-06T09:50:20.208Z,224.31
2023-05-06T09:51:20.306Z,223.35
2023-05-06T09:52:20.263Z,226.16
2023-05-06T09:53:20.251Z,224.64
2023-05-06T09:54:20.314Z,223.66
2023-05-06T09:55:20.304Z,224.16
2023-05-06T09:56:20.495Z,225.31
2023-05-06T09:57:20.311Z,225.02
2023-05-06T09:58:20.345Z,226.99
2023-05-06T09:59:20.397Z,225.42
2023-05-06T10:00:20.376Z,226.25
2023-05-06T10:01:32.485Z,225.85
2023-05-06T10:02:21.480Z,226.02
2023-05-06T10:03:20.513Z,226.69
2023-05-06T10:04:20.515Z,226.26
2023-05-06T10:05:20.419Z,227.68
2023-05-06T10:06:20.347Z,230.66
2023-05-06T10:07:20.439Z,233.45
2023-05-06T10:08:20.405Z,229.78
2023-05-06T10:09:20.325Z,230.38
2023-05-06T10:10:20.378Z,230.84
2023-05-06T10:11:20.332Z,231.51
2023-05-06T10:12:20.377Z,231.07
2023-05-06T10:13:20.388Z,232.26
2023-05-06T10:14:20.299Z,232.78
2023-05-06T10:15:20.283Z,234.49
2023-05-06T10:16:20.298Z,232.35
2023-05-06T10:17:20.325Z,232.33
2023-05-06T10:18:20.247Z,231.61
2023-05-06T10:19:20.272Z,230.64
2023-05-06T10:20:20.235Z,231.77
2023-05-06T10:21:20.275Z,231.91
2023-05-06T10:22:20.338Z,232.11
2023-05-06T10:23:20.233Z,234.40
2023-05-06T10:24:20.263Z,234.27
2023-05-06T10:25:20.204Z,233.57
2023-05-06T10:26:20.304Z,231.92
2023-05-06T10:27:20.217Z,232.87
2023-05-06T10:28:30.012Z,232.78
2023-05-06T10:29:21.226Z,233.02
2023-05-06T10:30:20.192Z,233.64
2023-05-06T10:31:20.196Z,234.18
2023-05-06T10:32:20.258Z,234.89
2023-05-06T10:33:20.213Z,235.48
2023-05-06T10:34:20.160Z,235.92
2023-05-06T10:35:20.137Z,233.57
2023-05-06T10:36:20.155Z,234.50
2023-05-06T10:37:20.146Z,235.59
2023-05-06T10:38:20.106Z,235.15
2023-05-06T10:39:20.130Z,233.18
2023-05-06T10:40:20.125Z,235.01
2023-05-06T10:41:20.105Z,234.73
2023-05-06T10:42:20.088Z,233.81
2023-05-06T10:43:20.072Z,235.44
2023-05-06T10:44:20.150Z,235.17
2023-05-06T10:45:20.097Z,233.55
2023-05-06T10:46:20.093Z,236.21
2023-05-06T10:47:20.108Z,236.90
2023-05-06T10:48:20.051Z,235.97
2023-05-06T10:49:20.082Z,235.24
2023-05-06T10:50:20.074Z,234.86
2023-05-06T10:51:20.077Z,234.39
2023-05-06T10:52:20.033Z,235.68
2023-05-06T10:53:20.015Z,235.39
2023-05-06T10:54:20.022Z,237.27
2023-05-06T10:55:20.065Z,236.63
2023-05-06T10:56:19.975Z,236.84
2023-05-06T10:57:20.013Z,235.90
2023-05-06T10:58:20.002Z,236.45
2023-05-06T10:59:20.018Z,238.10
2023-05-06T11:00:20.047Z,237.87
2023-05-06T11:01:20.009Z,236.85
2023-05-06T11:02:20.192Z,236.93
2023-05-06T11:03:20.077Z,235.20
2023-05-06T11:04:19.965Z,235.30
2023-05-06T11:05:19.919Z,235.84
2023-05-06T11:06:19.931Z,236.02
2023-05-06T11:07:19.930Z,234.38
2023-05-06T11:08:19.943Z,235.39
2023-05-06T11:09:19.954Z,236.98
2023-05-06T11:10:19.890Z,239.75
2023-05-06T11:11:19.888Z,239.61
2023-05-06T11:12:19.903Z,236.61
2023-05-06T11:13:19.942Z,236.48
2023-05-06T11:14:19.893Z,237.27
2023-05-06T11:15:19.864Z,239.77
2023-05-06T11:16:19.866Z,236.06
2023-05-06T11:17:19.985Z,235.81
2023-05-06T11:18:19.864Z,237.54
2023-05-06T11:19:19.851Z,240.76
2023-05-06T11:20:19.882Z,238.45
2023-05-06T11:21:19.856Z,236.74
2023-05-06T11:22:19.797Z,235.27
2023-05-06T11:23:19.804Z,235.78
2023-05-06T11:24:19.841Z,236.68
2023-05-06T11:25:19.785Z,238.38
2023-05-06T11:26:19.826Z,236.19
2023-05-06T11:27:19.809Z,236.39
2023-05-06T11:28:19.780Z,238.82
2023-05-06T11:29:19.779Z,238.57
2023-05-06T11:30:19.801Z,237.37
2023-05-06T11:31:19.840Z,237.33
2023-05-06T11:32:19.764Z,239.14
2023-05-06T11:33:19.746Z,241.94
2023-05-06T11:34:19.751Z,243.10
2023-05-06T11:35:19.753Z,242.03
2023-05-06T11:36:19.816Z,239.07
2023-05-06T11:37:19.719Z,244.21
2023-05-06T11:38:19.700Z,240.46
2023-05-06T11:39:19.725Z,241.89
2023-05-06T11:40:19.795Z,242.34
2023-05-06T11:41:19.703Z,241.40
2023-05-06T11:42:19.699Z,241.58
2023-05-06T11:43:19.699Z,244.33
2023-05-06T11:44:19.743Z,242.32
2023-05-06T11:45:19.709Z,240.87
2023-05-06T11:46:19.744Z,244.31
2023-05-06T11:47:19.740Z,241.82
2023-05-06T11:48:19.762Z,238.95
2023-05-06T11:49:19.643Z,243.06
2023-05-06T11:50:19.662Z,237.78
2023-05-06T11:51:19.627Z,240.11
2023-05-06T11:52:19.646Z,238.71
2023-05-06T11:53:19.656Z,239.16
2023-05-06T11:54:19.612Z,240.68
2023-05-06T11:55:19.608Z,238.98
2023-05-06T11:56:19.592Z,239.66
2023-05-06T11:57:19.629Z,243.26
2023-05-06T11:58:19.569Z,243.45
2023-05-06T11:59:19.582Z,241.11
2023-05-06T12:00:19.642Z,242.73
2023-05-06T12:01:19.536Z,242.99
2023-05-06T12:02:19.649Z,243.82
2023-05-06T12:03:19.622Z,241.57
2023-05-06T12:04:19.613Z,239.78
2023-05-06T12:05:19.568Z,238.99
2023-05-06T12:06:19.568Z,242.18
2023-05-06T12:07:19.585Z,238.23
2023-05-06T12:08:26.837Z,241.72
2023-05-06T12:09:20.607Z,241.85
2023-05-06T12:10:19.660Z,242.36
2023-05-06T12:11:19.598Z,239.58
2023-05-06T12:12:19.600Z,242.08
2023-05-06T12:13:19.700Z,245.21
2023-05-06T12:14:19.571Z,242.97
2023-05-06T12:15:19.586Z,242.90
2023-05-06T12:16:19.741Z,241.84
2023-05-06T12:17:19.616Z,242.10
2023-05-06T12:18:19.638Z,241.02
2023-05-06T12:19:19.697Z,243.54
2023-05-06T12:20:19.861Z,240.71
2023-05-06T12:21:19.824Z,242.41
2023-05-06T12:22:19.875Z,240.70
2023-05-06T12:23:19.951Z,239.14
2023-05-06T12:24:20.140Z,241.08
2023-05-06T12:25:20.089Z,237.76
2023-05-06T12:26:20.108Z,240.33
2023-05-06T12:27:20.221Z,239.84
2023-05-06T12:28:20.294Z,235.87